createdAt,value
2019-01-09T00:00:33.274Z,4.10
2019-01-09T00:03:07.587Z,4.07
2019-01-09T00:05:41.535Z,3.93
2019-01-09T00:08:15.582Z,4.10
2019-01-09T00:10:50.087Z,3.97
2019-01-09T00:13:30.072Z,6.63
2019-01-09T00:16:03.979Z,4.87
2019-01-09T00:18:38.325Z,5.57
2019-01-09T00:21:12.421Z,5.03
2019-01-09T00:23:46.822Z,5.57
2019-01-09T00:26:20.838Z,5.80
2019-01-09T00:28:54.960Z,7.50
2019-01-09T00:31:28.825Z,6.87
2019-01-09T00:34:02.508Z,4.53
2019-01-09T00:36:36.668Z,5.30
2019-01-09T00:39:11.195Z,7.00
2019-01-09T00:41:44.952Z,5.23
2019-01-09T00:44:18.946Z,5.30
2019-01-09T00:46:52.959Z,4.93
2019-01-09T00:49:27.383Z,7.73
2019-01-09T00:52:01.328Z,5.00
2019-01-09T00:54:35.200Z,4.97
2019-01-09T00:57:08.927Z,4.93
2019-01-09T00:59:42.920Z,5.37
2019-01-09T01:02:44.651Z,5.60
2019-01-09T01:06:07.522Z,4.73
2019-01-09T01:09:48.330Z,6.23
2019-01-09T01:12:59.803Z,5.57
2019-01-09T01:16:11.988Z,5.10
2019-01-09T01:19:19.427Z,5.57
2019-01-09T01:22:09.282Z,5.43
2019-01-09T01:25:09.370Z,6.07
2019-01-09T01:28:13.647Z,6.13
2019-01-09T01:31:27.084Z,5.80
2019-01-09T01:34:24.710Z,5.47
2019-01-09T01:37:34.066Z,5.83
2019-01-09T01:40:19.085Z,5.67
2019-01-09T01:43:38.116Z,6.33
2019-01-09T01:46:47.380Z,4.50
2019-01-09T01:49:55.686Z,4.80
2019-01-09T01:53:16.099Z,3.90
2019-01-09T01:56:35.288Z,3.53
2019-01-09T01:59:25.510Z,3.63
2019-01-09T02:02:57.042Z,3.70
2019-01-09T02:06:20.375Z,4.00
2019-01-09T02:09:19.296Z,3.63
2019-01-09T02:12:10.556Z,4.00
2019-01-09T02:15:08.339Z,4.13
2019-01-09T02:18:01.111Z,4.07
2019-01-09T02:21:14.423Z,3.40
2019-01-09T02:24:14.918Z,4.70
2019-01-09T02:27:04.523Z,4.37
2019-01-09T02:30:38.902Z,3.83
2019-01-09T02:33:32.683Z,4.33
2019-01-09T02:36:23.943Z,3.77
2019-01-09T02:39:11.255Z,3.90
2019-01-09T02:42:00.299Z,4.03
2019-01-09T02:44:56.590Z,3.67
2019-01-09T02:47:48.777Z,3.50
2019-01-09T02:50:31.865Z,4.10
2019-01-09T02:53:05.677Z,4.10
2019-01-09T02:55:39.819Z,4.23
2019-01-09T02:58:13.393Z,3.97
2019-01-09T03:00:47.232Z,5.33
2019-01-09T03:03:20.856Z,4.83
2019-01-09T03:05:54.843Z,6.33
2019-01-09T03:08:28.569Z,7.87
2019-01-09T03:11:02.280Z,6.53
2019-01-09T03:13:36.355Z,5.60
2019-01-09T03:16:10.277Z,4.63
2019-01-09T03:18:43.965Z,5.43
2019-01-09T03:21:17.923Z,5.77
2019-01-09T03:23:52.011Z,8.30
2019-01-09T03:26:25.455Z,6.13
2019-01-09T03:29:01.097Z,5.23
2019-01-09T03:31:46.346Z,9.17
2019-01-09T03:34:32.221Z,8.80
2019-01-09T03:37:08.131Z,7.60
2019-01-09T03:39:43.951Z,7.77
2019-01-09T03:42:19.571Z,5.67
2019-01-09T03:44:59.604Z,5.90
2019-01-09T03:47:49.416Z,5.47
2019-01-09T03:50:50.360Z,5.27
2019-01-09T03:53:33.233Z,7.00
2019-01-09T03:59:22.920Z,7.80
2019-01-09T04:02:02.607Z,7.20
2019-01-09T04:04:36.447Z,11.07
2019-01-09T04:07:10.210Z,11.57
2019-01-09T04:09:44.221Z,8.80
2019-01-09T04:12:18.275Z,11.50
2019-01-09T04:14:52.172Z,6.60
2019-01-09T04:17:25.943Z,6.83
2019-01-09T04:19:59.934Z,8.47
2019-01-09T04:22:33.740Z,5.87
2019-01-09T04:25:07.836Z,8.63
2019-01-09T04:27:41.511Z,6.00
2019-01-09T04:30:15.671Z,5.43
2019-01-09T04:32:49.578Z,6.63
2019-01-09T04:35:23.767Z,7.07
2019-01-09T04:37:57.447Z,5.60
2019-01-09T04:40:31.221Z,6.23
2019-01-09T04:43:05.073Z,6.53
2019-01-09T04:45:39.400Z,7.33
2019-01-09T04:48:13.330Z,6.33
2019-01-09T04:50:47.251Z,8.00
2019-01-09T04:53:21.297Z,7.20
2019-01-09T04:55:55.483Z,6.03
2019-01-09T04:58:29.203Z,6.70
2019-01-09T05:01:02.941Z,6.60
2019-01-09T05:03:37.071Z,5.43
2019-01-09T05:06:10.934Z,5.23
2019-01-09T05:08:44.527Z,5.73
2019-01-09T05:11:18.990Z,5.53
2019-01-09T05:13:52.663Z,5.63
2019-01-09T05:16:28.776Z,6.83
2019-01-09T05:19:02.787Z,8.97
2019-01-09T05:21:36.530Z,5.47
2019-01-09T05:24:09.945Z,5.97
2019-01-09T05:26:44.055Z,5.70
2019-01-09T05:29:17.995Z,6.03
2019-01-09T05:31:51.808Z,7.23
2019-01-09T05:34:25.827Z,4.90
2019-01-09T05:36:59.542Z,4.00
2019-01-09T05:39:39.669Z,5.77
2019-01-09T05:42:08.663Z,8.67
2019-01-09T05:44:42.250Z,5.27
2019-01-09T05:47:16.158Z,5.87
2019-01-09T05:49:50.070Z,5.30
2019-01-09T05:52:23.762Z,5.40
2019-01-09T05:54:57.836Z,7.63
2019-01-09T05:57:31.954Z,10.40
2019-01-09T06:00:05.786Z,6.67
2019-01-09T06:02:39.442Z,6.07
2019-01-09T06:05:13.136Z,7.17
2019-01-09T06:07:50.736Z,6.33
2019-01-09T06:10:24.403Z,7.60
2019-01-09T06:12:58.402Z,5.83
2019-01-09T06:15:32.763Z,7.23
2019-01-09T06:18:07.802Z,6.13
2019-01-09T06:20:41.599Z,6.63
2019-01-09T06:23:15.085Z,9.90
2019-01-09T06:25:49.058Z,13.70
2019-01-09T06:28:22.936Z,15.87
2019-01-09T06:30:56.583Z,23.13
2019-01-09T06:33:30.235Z,21.37
2019-01-09T06:36:04.070Z,17.50
2019-01-09T06:38:38.171Z,16.27
2019-01-09T06:41:12.832Z,13.67
2019-01-09T06:43:46.591Z,11.40
2019-01-09T06:46:20.292Z,9.47
2019-01-09T06:48:54.395Z,9.03
2019-01-09T06:51:28.115Z,9.27
2019-01-09T06:54:02.189Z,6.80
2019-01-09T06:56:36.306Z,8.70
2019-01-09T06:59:10.201Z,7.63
2019-01-09T07:01:43.844Z,8.77
2019-01-09T07:04:17.979Z,7.97
2019-01-09T07:06:51.632Z,9.03
2019-01-09T07:09:25.252Z,9.80
2019-01-09T07:11:59.319Z,10.63
2019-01-09T07:14:33.429Z,17.20
2019-01-09T07:17:07.664Z,17.57
2019-01-09T07:19:42.112Z,19.33
2019-01-09T07:22:15.807Z,22.07
2019-01-09T07:24:49.652Z,26.03
2019-01-09T07:27:23.852Z,24.53
2019-01-09T07:29:57.800Z,21.70
2019-01-09T07:32:31.703Z,17.17
2019-01-09T07:35:05.280Z,15.33
2019-01-09T07:37:44.987Z,14.37
2019-01-09T07:40:14.334Z,13.27
2019-01-09T07:42:48.480Z,17.63
2019-01-09T07:45:22.051Z,24.20
2019-01-09T07:47:55.979Z,19.03
2019-01-09T07:50:29.969Z,17.87
2019-01-09T07:53:04.040Z,25.60
2019-01-09T07:55:37.789Z,19.33
2019-01-09T07:58:12.019Z,17.67
2019-01-09T08:00:45.579Z,22.13
2019-01-09T08:03:18.991Z,17.87
2019-01-09T08:05:52.817Z,13.17
2019-01-09T08:08:26.658Z,15.50
2019-01-09T08:11:00.652Z,15.00
2019-01-09T08:13:34.572Z,16.17
2019-01-09T08:16:08.550Z,22.53
2019-01-09T08:18:42.581Z,30.73
2019-01-09T08:21:16.577Z,32.67
2019-01-09T08:23:50.604Z,38.90
2019-01-09T08:26:24.471Z,41.23
2019-01-09T08:28:58.118Z,38.63
2019-01-09T08:31:33.649Z,36.13
2019-01-09T08:34:07.056Z,36.57
2019-01-09T08:36:40.800Z,34.53
2019-01-09T08:39:14.654Z,32.17
2019-01-09T08:41:48.597Z,31.67
2019-01-09T08:44:22.728Z,36.33
2019-01-09T08:46:56.679Z,34.40
2019-01-09T08:49:30.540Z,30.80
2019-01-09T08:52:04.408Z,33.20
2019-01-09T08:54:38.160Z,38.67
2019-01-09T08:57:11.822Z,37.40
2019-01-09T08:59:45.617Z,39.40
2019-01-09T09:02:19.347Z,39.50
2019-01-09T09:04:53.277Z,40.17
2019-01-09T09:07:27.938Z,40.27
2019-01-09T09:10:01.652Z,37.87
2019-01-09T09:12:35.473Z,43.10
2019-01-09T09:15:10.882Z,43.77
2019-01-09T09:17:44.951Z,48.77
2019-01-09T09:20:19.306Z,48.43
2019-01-09T09:22:53.079Z,51.03
2019-01-09T09:25:27.212Z,56.60
2019-01-09T09:28:01.403Z,49.60
2019-01-09T09:30:35.230Z,48.23
2019-01-09T09:33:09.338Z,28.37
2019-01-09T09:35:43.475Z,21.97
2019-01-09T09:38:20.679Z,18.47
2019-01-09T09:40:52.359Z,19.93
2019-01-09T09:43:26.081Z,17.70
2019-01-09T09:46:00.528Z,17.80
2019-01-09T09:48:34.385Z,28.63
2019-01-09T09:51:08.128Z,18.90
2019-01-09T09:53:41.878Z,16.47
2019-01-09T09:56:15.763Z,19.17
2019-01-09T09:58:49.725Z,20.67
2019-01-09T10:01:23.691Z,16.83
2019-01-09T10:03:57.639Z,19.13
2019-01-09T10:06:31.479Z,15.33
2019-01-09T10:09:05.064Z,15.23
2019-01-09T10:11:39.094Z,16.50
2019-01-09T10:14:12.867Z,13.60
2019-01-09T10:16:46.731Z,15.13
2019-01-09T10:19:20.683Z,15.70
2019-01-09T10:21:54.625Z,15.63
2019-01-09T10:24:28.506Z,16.80
2019-01-09T10:27:02.419Z,20.50
2019-01-09T10:29:36.123Z,18.07
2019-01-09T10:32:09.843Z,13.57
2019-01-09T10:34:43.660Z,12.97
2019-01-09T10:37:17.399Z,12.83
2019-01-09T10:39:51.499Z,13.43
2019-01-09T10:42:25.476Z,11.70
2019-01-09T10:44:59.400Z,11.83
2019-01-09T10:47:33.834Z,12.50
2019-01-09T10:50:07.785Z,15.60
2019-01-09T10:52:41.327Z,13.40
2019-01-09T10:55:15.677Z,13.83
2019-01-09T10:57:49.658Z,15.67
2019-01-09T11:00:25.729Z,16.77
2019-01-09T11:02:59.447Z,15.50
2019-01-09T11:05:33.151Z,16.43
2019-01-09T11:08:07.138Z,15.23
2019-01-09T11:10:41.051Z,15.53
2019-01-09T11:13:15.008Z,15.13
2019-01-09T11:15:48.699Z,16.17
2019-01-09T11:18:22.599Z,18.03
2019-01-09T11:20:56.344Z,15.43
2019-01-09T11:23:30.181Z,14.73
2019-01-09T11:26:04.249Z,12.90
2019-01-09T11:28:38.505Z,12.73
2019-01-09T11:31:12.605Z,13.57
2019-01-09T11:33:46.489Z,13.20
2019-01-09T11:36:20.273Z,14.47
2019-01-09T11:38:55.971Z,16.50
2019-01-09T11:41:30.280Z,14.63
2019-01-09T11:44:04.325Z,15.47
2019-01-09T11:46:38.344Z,16.13
2019-01-09T11:49:12.094Z,14.47
2019-01-09T11:51:45.926Z,15.27
2019-01-09T11:54:19.369Z,14.47
2019-01-09T11:56:52.677Z,13.60
2019-01-09T11:59:26.504Z,15.87
2019-01-09T12:01:59.840Z,13.90
2019-01-09T12:04:33.628Z,13.93
2019-01-09T12:07:07.568Z,13.23
2019-01-09T12:09:41.479Z,11.90
2019-01-09T12:12:15.455Z,12.33
2019-01-09T12:14:49.529Z,11.33
2019-01-09T12:17:23.400Z,11.23
2019-01-09T12:19:57.471Z,10.50
2019-01-09T12:22:30.925Z,11.17
2019-01-09T12:25:13.074Z,10.87
2019-01-09T12:27:46.908Z,11.17
2019-01-09T12:30:28.317Z,12.00
2019-01-09T12:33:02.152Z,13.40
2019-01-09T12:35:44.773Z,13.60
2019-01-09T12:38:18.195Z,12.47
2019-01-09T12:40:51.552Z,12.67
2019-01-09T12:43:25.023Z,16.03
2019-01-09T12:45:58.894Z,15.27
2019-01-09T12:48:32.342Z,15.30
2019-01-09T12:51:06.391Z,15.37
2019-01-09T12:53:40.355Z,13.43
2019-01-09T12:56:14.404Z,14.00
2019-01-09T12:58:47.741Z,13.60
2019-01-09T13:01:21.224Z,16.30
2019-01-09T13:03:55.175Z,17.13
2019-01-09T13:06:29.628Z,16.37
2019-01-09T13:09:02.965Z,14.47
2019-01-09T13:11:36.810Z,17.30
2019-01-09T13:14:11.687Z,13.93
2019-01-09T13:16:47.894Z,13.07
2019-01-09T13:19:20.458Z,14.23
2019-01-09T13:21:53.823Z,12.63
2019-01-09T13:24:27.720Z,13.00
2019-01-09T13:27:02.063Z,11.83
2019-01-09T13:29:35.861Z,12.60
2019-01-09T13:32:09.361Z,13.17
2019-01-09T13:34:43.450Z,12.40
2019-01-09T13:37:17.869Z,11.40
2019-01-09T13:39:51.739Z,11.40
2019-01-09T13:42:25.333Z,11.10
2019-01-09T13:45:00.388Z,10.57
2019-01-09T13:47:35.516Z,11.40
2019-01-09T13:50:09.539Z,11.40
2019-01-09T13:53:05.632Z,12.90
2019-01-09T13:55:39.365Z,12.23
2019-01-09T13:58:14.611Z,12.67
2019-01-09T14:00:53.614Z,9.27
2019-01-09T14:03:27.770Z,11.90
2019-01-09T14:06:01.476Z,8.50
2019-01-09T14:08:35.062Z,8.40
2019-01-09T14:11:09.127Z,6.47
2019-01-09T14:13:46.977Z,7.57
2019-01-09T14:16:21.094Z,7.63
2019-01-09T14:18:59.307Z,7.93
2019-01-09T14:21:32.752Z,8.40
2019-01-09T14:24:07.875Z,6.30
2019-01-09T14:26:42.638Z,5.37
2019-01-09T14:29:16.856Z,6.10
2019-01-09T14:31:51.645Z,4.47
2019-01-09T14:34:27.205Z,4.20
2019-01-09T14:37:06.495Z,4.60
2019-01-09T14:39:47.980Z,4.17
2019-01-09T14:42:19.592Z,3.60
2019-01-09T14:44:55.133Z,3.90
2019-01-09T14:47:28.691Z,5.37
2019-01-09T14:50:02.551Z,5.17
2019-01-09T14:52:35.986Z,5.80
2019-01-09T14:55:11.589Z,4.40
2019-01-09T14:57:44.974Z,4.20
2019-01-09T15:00:21.012Z,3.83
2019-01-09T15:02:54.408Z,3.60
2019-01-09T15:05:30.146Z,3.30
2019-01-09T15:08:03.542Z,4.30
2019-01-09T15:10:38.479Z,4.93
2019-01-09T15:13:11.891Z,12.33
2019-01-09T15:15:46.934Z,4.70
2019-01-09T15:18:20.305Z,5.70
2019-01-09T15:20:53.783Z,4.37
2019-01-09T15:23:28.075Z,4.87
2019-01-09T15:26:04.720Z,5.10
2019-01-09T15:28:38.167Z,5.07
2019-01-09T15:31:15.212Z,3.53
2019-01-09T15:33:49.508Z,3.67
2019-01-09T15:36:30.310Z,3.27
2019-01-09T15:39:03.802Z,3.40
2019-01-09T15:41:39.821Z,5.73
2019-01-09T15:44:13.964Z,3.03
2019-01-09T15:46:47.536Z,4.87
2019-01-09T15:49:20.995Z,3.70
2019-01-09T15:51:54.870Z,2.93
2019-01-09T15:54:28.253Z,2.87
2019-01-09T15:57:02.046Z,4.03
2019-01-09T15:59:38.357Z,3.73
2019-01-09T16:02:11.770Z,4.17
2019-01-09T16:04:46.341Z,4.33
2019-01-09T16:07:21.273Z,4.97
2019-01-09T16:09:54.766Z,4.73
2019-01-09T16:12:28.288Z,3.80
2019-01-09T16:15:02.232Z,5.90
2019-01-09T16:17:36.808Z,2.80
2019-01-09T16:20:16.947Z,3.57
2019-01-09T16:22:47.060Z,3.77
2019-01-09T16:25:20.328Z,3.57
2019-01-09T16:27:53.770Z,3.80
2019-01-09T16:30:36.757Z,5.83
2019-01-09T16:33:11.959Z,3.40
2019-01-09T16:35:46.220Z,3.77
2019-01-09T16:38:20.417Z,3.40
2019-01-09T16:40:56.598Z,3.40
2019-01-09T16:43:29.980Z,4.17
2019-01-09T16:46:03.579Z,4.73
2019-01-09T16:48:40.381Z,3.30
2019-01-09T16:51:13.739Z,5.10
2019-01-09T16:53:48.151Z,2.80
2019-01-09T16:56:22.031Z,3.40
2019-01-09T16:58:56.784Z,2.73
2019-01-09T17:01:30.754Z,6.67
2019-01-09T17:04:04.346Z,2.50
2019-01-09T17:06:38.450Z,3.20
2019-01-09T17:09:35.577Z,6.00
2019-01-09T17:12:08.944Z,6.57
2019-01-09T17:14:42.620Z,3.37
2019-01-09T17:17:16.107Z,3.33
2019-01-09T17:19:49.706Z,4.17
2019-01-09T17:22:23.172Z,2.47
2019-01-09T17:24:56.588Z,5.10
2019-01-09T17:27:33.011Z,4.60
2019-01-09T17:30:08.262Z,4.17
2019-01-09T17:32:42.108Z,3.40
2019-01-09T17:35:16.959Z,3.10
2019-01-09T17:37:50.829Z,3.77
2019-01-09T17:40:24.786Z,3.53
2019-01-09T17:43:01.104Z,5.07
2019-01-09T17:45:35.973Z,3.23
2019-01-09T17:48:09.851Z,13.77
2019-01-09T17:50:46.365Z,3.93
2019-01-09T17:53:20.133Z,4.17
2019-01-09T17:56:14.030Z,3.60
2019-01-09T17:58:47.585Z,4.80
2019-01-09T18:01:21.167Z,3.17
2019-01-09T18:04:21.646Z,3.30
2019-01-09T18:07:19.320Z,3.53
2019-01-09T18:09:53.840Z,3.23
2019-01-09T18:12:28.754Z,4.10
2019-01-09T18:15:02.121Z,3.30
2019-01-09T18:17:37.354Z,3.50
2019-01-09T18:20:12.779Z,4.87
2019-01-09T18:22:46.442Z,5.47
2019-01-09T18:25:25.091Z,4.33
2019-01-09T18:28:00.614Z,4.43
2019-01-09T18:30:43.690Z,2.90
2019-01-09T18:33:31.309Z,3.10
2019-01-09T18:36:45.309Z,4.97
2019-01-09T18:40:08.466Z,4.10
2019-01-09T18:43:29.489Z,3.20
2019-01-09T18:46:20.612Z,3.50
2019-01-09T18:49:39.249Z,10.70
2019-01-09T18:53:09.187Z,4.93
2019-01-09T18:55:43.255Z,3.73
2019-01-09T18:58:18.911Z,3.07
2019-01-09T19:00:52.432Z,3.63
2019-01-09T19:03:27.786Z,2.97
2019-01-09T19:06:01.643Z,3.00
2019-01-09T19:08:36.154Z,4.33
2019-01-09T19:11:09.597Z,3.50
2019-01-09T19:13:43.875Z,3.60
2019-01-09T19:16:22.164Z,3.93
2019-01-09T19:18:55.607Z,3.40
2019-01-09T19:21:28.985Z,3.77
2019-01-09T19:24:02.985Z,4.20
2019-01-09T19:26:36.914Z,2.70
2019-01-09T19:29:13.090Z,3.77
2019-01-09T19:31:46.518Z,3.40
2019-01-09T19:34:19.993Z,3.63
2019-01-09T19:36:55.772Z,3.87
2019-01-09T19:39:29.220Z,5.13
2019-01-09T19:42:03.291Z,3.40
2019-01-09T19:44:37.791Z,3.40
2019-01-09T19:47:11.058Z,2.90
2019-01-09T19:49:46.573Z,3.80
2019-01-09T19:52:19.883Z,3.93
2019-01-09T19:54:56.931Z,4.40
2019-01-09T19:57:30.139Z,3.03
2019-01-09T20:00:03.489Z,3.97
2019-01-09T20:02:36.954Z,5.00
2019-01-09T20:05:10.425Z,4.00
2019-01-09T20:07:43.779Z,4.60
2019-01-09T20:10:19.824Z,4.13
2019-01-09T20:12:53.378Z,4.33
2019-01-09T20:15:28.406Z,4.23
2019-01-09T20:18:01.689Z,4.57
2019-01-09T20:20:36.205Z,5.00
2019-01-09T20:23:10.221Z,6.60
2019-01-09T20:25:45.097Z,5.53
2019-01-09T20:28:19.783Z,3.27
2019-01-09T20:30:53.450Z,4.60
2019-01-09T20:33:26.847Z,5.80
2019-01-09T20:36:01.722Z,4.23
2019-01-09T20:38:35.466Z,3.67
2019-01-09T20:41:09.524Z,4.43
2019-01-09T20:43:43.003Z,6.67
2019-01-09T20:46:16.383Z,7.37
2019-01-09T20:48:49.805Z,4.03
2019-01-09T20:51:23.232Z,4.00
2019-01-09T20:53:59.865Z,4.77
2019-01-09T20:56:43.012Z,4.40
2019-01-09T20:59:16.389Z,6.67
2019-01-09T21:01:49.896Z,5.53
2019-01-09T21:04:23.414Z,5.33
2019-01-09T21:06:57.716Z,5.43
2019-01-09T21:09:33.801Z,4.00
2019-01-09T21:12:08.795Z,6.47
2019-01-09T21:14:45.119Z,5.53
2019-01-09T21:17:21.396Z,2.90
2019-01-09T21:19:55.194Z,3.73
2019-01-09T21:22:30.714Z,4.13
2019-01-09T21:25:04.811Z,5.10
2019-01-09T21:27:42.219Z,6.17
2019-01-09T21:30:16.080Z,3.87
2019-01-09T21:32:50.531Z,3.77
2019-01-09T21:35:23.914Z,4.47
2019-01-09T21:37:58.822Z,5.07
2019-01-09T21:40:33.299Z,5.60
2019-01-09T21:43:08.367Z,4.17
2019-01-09T21:45:41.747Z,4.30
2019-01-09T21:48:17.453Z,3.87
2019-01-09T21:50:51.398Z,3.40
2019-01-09T21:53:28.400Z,4.47
2019-01-09T21:56:01.756Z,4.27
2019-01-09T21:58:35.914Z,3.97
2019-01-09T22:01:09.425Z,4.20
2019-01-09T22:03:42.815Z,4.63
2019-01-09T22:06:16.196Z,5.10
2019-01-09T22:08:51.334Z,3.10
2019-01-09T22:11:24.829Z,4.07
2019-01-09T22:13:58.371Z,3.60
2019-01-09T22:16:32.016Z,6.20
2019-01-09T22:19:11.854Z,4.40
2019-01-09T22:21:41.571Z,4.27
2019-01-09T22:24:15.184Z,4.07
2019-01-09T22:26:48.432Z,4.43
2019-01-09T22:29:21.959Z,3.33
2019-01-09T22:31:55.512Z,3.03
2019-01-09T22:34:36.372Z,3.50
2019-01-09T22:37:09.812Z,3.37
2019-01-09T22:39:50.232Z,2.70
2019-01-09T22:42:26.274Z,2.30
2019-01-09T22:45:00.873Z,3.37
2019-01-09T22:47:36.671Z,4.07
2019-01-09T22:50:11.472Z,2.90
2019-01-09T22:52:44.759Z,3.97
2019-01-09T22:55:18.068Z,3.40
2019-01-09T22:57:51.473Z,4.17
2019-01-09T23:01:02.067Z,3.40
2019-01-09T23:03:35.698Z,3.33
2019-01-09T23:06:12.195Z,4.77
2019-01-09T23:08:45.419Z,3.80
2019-01-09T23:11:18.817Z,2.60
2019-01-09T23:13:51.979Z,3.03
2019-01-09T23:16:25.346Z,4.10
2019-01-09T23:18:58.705Z,3.57
2019-01-09T23:21:33.190Z,3.87
2019-01-09T23:24:07.227Z,4.30
2019-01-09T23:26:40.998Z,3.70
2019-01-09T23:29:14.358Z,2.43
2019-01-09T23:31:48.330Z,3.10
2019-01-09T23:34:22.334Z,3.00
2019-01-09T23:36:55.770Z,3.20
2019-01-09T23:39:29.643Z,2.87
2019-01-09T23:42:03.070Z,3.17
2019-01-09T23:44:36.723Z,2.30
2019-01-09T23:47:10.130Z,2.53
2019-01-09T23:49:44.024Z,3.73
2019-01-09T23:52:17.491Z,3.00
2019-01-09T23:54:50.878Z,3.20
2019-01-09T23:57:24.387Z,3.37
2019-01-09T23:59:58.587Z,5.93
